sensor_id;sensor_type;location;lat;lon;timestamp;temperature;humidity
59973;DHT22;55298;-36.624;-64.282;2022-12-07T00:01:44;29.80;25.80
59973;DHT22;55298;-36.624;-64.282;2022-12-07T00:04:16;29.70;25.80
59973;DHT22;55298;-36.624;-64.282;2022-12-07T00:06:50;29.60;25.60
59973;DHT22;55298;-36.624;-64.282;2022-12-07T00:09:19;29.60;25.80
59973;DHT22;55298;-36.624;-64.282;2022-12-07T00:11:50;29.60;25.90
59973;DHT22;55298;-36.624;-64.282;2022-12-07T00:14:18;29.50;26.00
59973;DHT22;55298;-36.624;-64.282;2022-12-07T00:16:48;29.40;26.10
59973;DHT22;55298;-36.624;-64.282;2022-12-07T00:19:17;29.30;26.30
59973;DHT22;55298;-36.624;-64.282;2022-12-07T00:21:46;29.30;26.50
59973;DHT22;55298;-36.624;-64.282;2022-12-07T00:24:15;29.30;26.70
59973;DHT22;55298;-36.624;-64.282;2022-12-07T00:27:06;29.20;26.90
59973;DHT22;55298;-36.624;-64.282;2022-12-07T00:29:37;29.10;26.90
59973;DHT22;55298;-36.624;-64.282;2022-12-07T00:32:04;29.00;27.20
59973;DHT22;55298;-36.624;-64.282;2022-12-07T00:34:32;28.90;26.80
59973;DHT22;55298;-36.624;-64.282;2022-12-07T00:37:00;28.80;27.30
59973;DHT22;55298;-36.624;-64.282;2022-12-07T00:39:27;28.80;27.40
59973;DHT22;55298;-36.624;-64.282;2022-12-07T00:41:55;28.70;27.40
59973;DHT22;55298;-36.624;-64.282;2022-12-07T00:44:27;28.70;27.80
59973;DHT22;55298;-36.624;-64.282;2022-12-07T00:46:55;28.60;27.80
59973;DHT22;55298;-36.624;-64.282;2022-12-07T00:49:24;28.50;27.90
59973;DHT22;55298;-36.624;-64.282;2022-12-07T00:51:51;28.50;28.00
59973;DHT22;55298;-36.624;-64.282;2022-12-07T00:54:19;28.40;28.20
59973;DHT22;55298;-36.624;-64.282;2022-12-07T00:56:47;28.30;28.40
59973;DHT22;55298;-36.624;-64.282;2022-12-07T00:59:18;28.20;28.70
59973;DHT22;55298;-36.624;-64.282;2022-12-07T01:01:51;28.10;28.40
59973;DHT22;55298;-36.624;-64.282;2022-12-07T01:04:19;28.00;29.00
59973;DHT22;55298;-36.624;-64.282;2022-12-07T01:06:46;27.90;29.20
59973;DHT22;55298;-36.624;-64.282;2022-12-07T01:09:14;27.80;29.30
59973;DHT22;55298;-36.624;-64.282;2022-12-07T01:11:43;27.80;29.50
59973;DHT22;55298;-36.624;-64.282;2022-12-07T01:14:13;27.70;29.60
59973;DHT22;55298;-36.624;-64.282;2022-12-07T01:16:41;27.60;29.90
59973;DHT22;55298;-36.624;-64.282;2022-12-07T01:19:09;27.60;30.00
59973;DHT22;55298;-36.624;-64.282;2022-12-07T01:21:36;27.50;30.00
59973;DHT22;55298;-36.624;-64.282;2022-12-07T01:24:09;27.50;30.40
59973;DHT22;55298;-36.624;-64.282;2022-12-07T01:26:39;27.40;30.20
59973;DHT22;55298;-36.624;-64.282;2022-12-07T01:29:07;27.20;30.70
59973;DHT22;55298;-36.624;-64.282;2022-12-07T01:31:34;27.20;31.10
59973;DHT22;55298;-36.624;-64.282;2022-12-07T01:34:03;27.00;31.40
59973;DHT22;55298;-36.624;-64.282;2022-12-07T01:36:34;26.80;31.50
59973;DHT22;55298;-36.624;-64.282;2022-12-07T01:39:06;26.80;31.90
59973;DHT22;55298;-36.624;-64.282;2022-12-07T01:41:38;26.70;31.20
59973;DHT22;55298;-36.624;-64.282;2022-12-07T01:44:26;26.70;31.60
59973;DHT22;55298;-36.624;-64.282;2022-12-07T01:46:59;26.70;32.00
59973;DHT22;55298;-36.624;-64.282;2022-12-07T01:49:42;26.60;32.10
59973;DHT22;55298;-36.624;-64.282;2022-12-07T01:52:28;26.60;32.40
59973;DHT22;55298;-36.624;-64.282;2022-12-07T01:55:01;26.50;32.80
59973;DHT22;55298;-36.624;-64.282;2022-12-07T01:57:32;26.40;33.00
59973;DHT22;55298;-36.624;-64.282;2022-12-07T02:00:03;26.30;33.20
59973;DHT22;55298;-36.624;-64.282;2022-12-07T02:02:35;26.20;33.60
59973;DHT22;55298;-36.624;-64.282;2022-12-07T02:05:06;26.10;33.70
59973;DHT22;55298;-36.624;-64.282;2022-12-07T02:07:36;26.10;33.30
59973;DHT22;55298;-36.624;-64.282;2022-12-07T02:10:16;25.90;34.00
59973;DHT22;55298;-36.624;-64.282;2022-12-07T02:12:48;26.20;33.80
59973;DHT22;55298;-36.624;-64.282;2022-12-07T02:15:19;25.90;33.10
59973;DHT22;55298;-36.624;-64.282;2022-12-07T02:20:49;26.00;34.00
59973;DHT22;55298;-36.624;-64.282;2022-12-07T02:32:10;25.80;35.30
59973;DHT22;55298;-36.624;-64.282;2022-12-07T02:34:50;25.80;35.40
59973;DHT22;55298;-36.624;-64.282;2022-12-07T02:37:39;25.70;35.60
59973;DHT22;55298;-36.624;-64.282;2022-12-07T02:40:18;25.50;35.80
59973;DHT22;55298;-36.624;-64.282;2022-12-07T02:42:51;25.60;35.50
59973;DHT22;55298;-36.624;-64.282;2022-12-07T02:45:23;25.70;35.30
59973;DHT22;55298;-36.624;-64.282;2022-12-07T02:47:55;25.70;35.00
59973;DHT22;55298;-36.624;-64.282;2022-12-07T02:50:26;25.80;35.20
59973;DHT22;55298;-36.624;-64.282;2022-12-07T02:52:55;25.90;35.30
59973;DHT22;55298;-36.624;-64.282;2022-12-07T02:55:31;25.90;35.50
59973;DHT22;55298;-36.624;-64.282;2022-12-07T02:58:22;25.80;35.60
59973;DHT22;55298;-36.624;-64.282;2022-12-07T03:03:54;25.80;36.50
59973;DHT22;55298;-36.624;-64.282;2022-12-07T03:06:31;25.70;36.80
59973;DHT22;55298;-36.624;-64.282;2022-12-07T03:09:20;25.60;37.30
59973;DHT22;55298;-36.624;-64.282;2022-12-07T03:14:39;25.60;38.10
59973;DHT22;55298;-36.624;-64.282;2022-12-07T03:17:16;25.50;38.70
59973;DHT22;55298;-36.624;-64.282;2022-12-07T03:19:46;25.40;39.10
59973;DHT22;55298;-36.624;-64.282;2022-12-07T03:22:14;25.40;39.80
59973;DHT22;55298;-36.624;-64.282;2022-12-07T03:24:51;25.30;39.60
59973;DHT22;55298;-36.624;-64.282;2022-12-07T03:27:23;25.30;40.40
59973;DHT22;55298;-36.624;-64.282;2022-12-07T03:30:13;25.30;40.60
59973;DHT22;55298;-36.624;-64.282;2022-12-07T03:35:36;25.10;40.90
59973;DHT22;55298;-36.624;-64.282;2022-12-07T03:38:22;25.10;41.60
59973;DHT22;55298;-36.624;-64.282;2022-12-07T03:41:16;25.00;42.20
59973;DHT22;55298;-36.624;-64.282;2022-12-07T03:43:43;24.90;42.50
59973;DHT22;55298;-36.624;-64.282;2022-12-07T03:46:29;24.70;42.90
59973;DHT22;55298;-36.624;-64.282;2022-12-07T03:49:16;24.70;43.50
59973;DHT22;55298;-36.624;-64.282;2022-12-07T03:55:06;24.50;44.10
59973;DHT22;55298;-36.624;-64.282;2022-12-07T03:57:38;24.50;44.80
59973;DHT22;55298;-36.624;-64.282;2022-12-07T04:00:09;24.40;44.60
59973;DHT22;55298;-36.624;-64.282;2022-12-07T04:02:41;24.40;44.60
59973;DHT22;55298;-36.624;-64.282;2022-12-07T04:05:12;24.40;44.80
59973;DHT22;55298;-36.624;-64.282;2022-12-07T04:07:41;24.40;44.50
59973;DHT22;55298;-36.624;-64.282;2022-12-07T04:10:10;24.30;44.80
59973;DHT22;55298;-36.624;-64.282;2022-12-07T04:12:38;24.30;44.80
59973;DHT22;55298;-36.624;-64.282;2022-12-07T04:15:07;24.30;45.10
59973;DHT22;55298;-36.624;-64.282;2022-12-07T04:17:35;24.20;44.70
59973;DHT22;55298;-36.624;-64.282;2022-12-07T04:20:04;24.20;45.10
59973;DHT22;55298;-36.624;-64.282;2022-12-07T04:22:33;24.10;45.40
59973;DHT22;55298;-36.624;-64.282;2022-12-07T04:25:01;24.10;45.60
59973;DHT22;55298;-36.624;-64.282;2022-12-07T04:27:40;24.10;45.70
59973;DHT22;55298;-36.624;-64.282;2022-12-07T04:30:15;23.90;46.10
59973;DHT22;55298;-36.624;-64.282;2022-12-07T04:32:56;23.80;46.70
59973;DHT22;55298;-36.624;-64.282;2022-12-07T04:35:25;23.70;46.50
59973;DHT22;55298;-36.624;-64.282;2022-12-07T04:37:55;23.70;47.00
59973;DHT22;55298;-36.624;-64.282;2022-12-07T04:40:23;23.60;47.10
59973;DHT22;55298;-36.624;-64.282;2022-12-07T04:42:55;23.60;47.30
59973;DHT22;55298;-36.624;-64.282;2022-12-07T04:45:22;23.50;47.40
59973;DHT22;55298;-36.624;-64.282;2022-12-07T04:47:51;23.40;47.30
59973;DHT22;55298;-36.624;-64.282;2022-12-07T04:50:19;23.40;47.20
59973;DHT22;55298;-36.624;-64.282;2022-12-07T04:52:48;23.30;47.20
59973;DHT22;55298;-36.624;-64.282;2022-12-07T04:55:16;23.30;47.30
59973;DHT22;55298;-36.624;-64.282;2022-12-07T04:57:50;23.20;47.60
59973;DHT22;55298;-36.624;-64.282;2022-12-07T05:00:18;23.20;47.60
59973;DHT22;55298;-36.624;-64.282;2022-12-07T05:02:48;23.10;47.40
59973;DHT22;55298;-36.624;-64.282;2022-12-07T05:05:16;23.00;47.70
59973;DHT22;55298;-36.624;-64.282;2022-12-07T05:07:45;23.00;47.80
59973;DHT22;55298;-36.624;-64.282;2022-12-07T05:10:13;22.90;47.80
59973;DHT22;55298;-36.624;-64.282;2022-12-07T05:12:41;22.80;47.80
59973;DHT22;55298;-36.624;-64.282;2022-12-07T05:15:09;22.80;47.80
59973;DHT22;55298;-36.624;-64.282;2022-12-07T05:17:37;22.70;48.00
59973;DHT22;55298;-36.624;-64.282;2022-12-07T05:20:09;22.70;48.00
59973;DHT22;55298;-36.624;-64.282;2022-12-07T05:22:37;22.50;48.00
59973;DHT22;55298;-36.624;-64.282;2022-12-07T05:25:07;22.60;48.20
59973;DHT22;55298;-36.624;-64.282;2022-12-07T05:27:35;22.50;48.50
59973;DHT22;55298;-36.624;-64.282;2022-12-07T05:30:04;22.40;49.00
59973;DHT22;55298;-36.624;-64.282;2022-12-07T05:32:36;22.30;49.30
59973;DHT22;55298;-36.624;-64.282;2022-12-07T05:35:05;22.20;49.50
59973;DHT22;55298;-36.624;-64.282;2022-12-07T05:37:35;22.20;49.30
59973;DHT22;55298;-36.624;-64.282;2022-12-07T05:40:04;22.10;49.80
59973;DHT22;55298;-36.624;-64.282;2022-12-07T05:42:32;22.00;50.00
59973;DHT22;55298;-36.624;-64.282;2022-12-07T05:44:59;22.00;50.10
59973;DHT22;55298;-36.624;-64.282;2022-12-07T05:47:28;21.90;50.40
59973;DHT22;55298;-36.624;-64.282;2022-12-07T05:49:57;21.90;50.60
59973;DHT22;55298;-36.624;-64.282;2022-12-07T05:52:25;21.80;50.70
59973;DHT22;55298;-36.624;-64.282;2022-12-07T05:54:54;21.80;50.90
59973;DHT22;55298;-36.624;-64.282;2022-12-07T05:57:23;21.80;51.00
59973;DHT22;55298;-36.624;-64.282;2022-12-07T05:59:52;21.70;51.00
59973;DHT22;55298;-36.624;-64.282;2022-12-07T06:02:19;21.70;51.10
59973;DHT22;55298;-36.624;-64.282;2022-12-07T06:04:48;21.70;51.00
59973;DHT22;55298;-36.624;-64.282;2022-12-07T06:07:17;21.60;51.10
59973;DHT22;55298;-36.624;-64.282;2022-12-07T06:09:45;21.60;51.20
59973;DHT22;55298;-36.624;-64.282;2022-12-07T06:12:13;21.60;51.20
59973;DHT22;55298;-36.624;-64.282;2022-12-07T06:14:52;21.50;51.20
59973;DHT22;55298;-36.624;-64.282;2022-12-07T06:17:20;21.50;51.30
59973;DHT22;55298;-36.624;-64.282;2022-12-07T06:19:48;21.50;51.20
59973;DHT22;55298;-36.624;-64.282;2022-12-07T06:22:16;21.50;51.20
59973;DHT22;55298;-36.624;-64.282;2022-12-07T06:24:44;21.50;51.30
59973;DHT22;55298;-36.624;-64.282;2022-12-07T06:27:13;21.40;51.50
59973;DHT22;55298;-36.624;-64.282;2022-12-07T06:29:42;21.40;51.70
59973;DHT22;55298;-36.624;-64.282;2022-12-07T06:32:10;21.20;51.80
59973;DHT22;55298;-36.624;-64.282;2022-12-07T06:34:39;21.30;51.90
59973;DHT22;55298;-36.624;-64.282;2022-12-07T06:37:08;21.30;52.20
59973;DHT22;55298;-36.624;-64.282;2022-12-07T06:39:35;21.30;52.10
59973;DHT22;55298;-36.624;-64.282;2022-12-07T06:42:03;21.30;52.30
59973;DHT22;55298;-36.624;-64.282;2022-12-07T06:44:30;21.20;52.30
59973;DHT22;55298;-36.624;-64.282;2022-12-07T06:46:59;21.20;52.20
59973;DHT22;55298;-36.624;-64.282;2022-12-07T06:49:26;21.30;52.10
59973;DHT22;55298;-36.624;-64.282;2022-12-07T06:51:54;21.20;52.30
59973;DHT22;55298;-36.624;-64.282;2022-12-07T06:54:21;21.20;52.30
59973;DHT22;55298;-36.624;-64.282;2022-12-07T06:56:49;21.20;52.80
59973;DHT22;55298;-36.624;-64.282;2022-12-07T06:59:16;21.20;52.30
59973;DHT22;55298;-36.624;-64.282;2022-12-07T07:01:44;21.20;51.90
59973;DHT22;55298;-36.624;-64.282;2022-12-07T07:04:12;21.20;52.30
59973;DHT22;55298;-36.624;-64.282;2022-12-07T07:06:39;21.30;52.50
59973;DHT22;55298;-36.624;-64.282;2022-12-07T07:09:08;21.20;52.40
59973;DHT22;55298;-36.624;-64.282;2022-12-07T07:11:36;21.20;52.50
59973;DHT22;55298;-36.624;-64.282;2022-12-07T07:14:03;21.20;52.70
59973;DHT22;55298;-36.624;-64.282;2022-12-07T07:16:31;21.10;52.60
59973;DHT22;55298;-36.624;-64.282;2022-12-07T07:19:00;21.10;52.70
59973;DHT22;55298;-36.624;-64.282;2022-12-07T07:21:27;21.20;52.50
59973;DHT22;55298;-36.624;-64.282;2022-12-07T07:23:55;21.10;52.80
59973;DHT22;55298;-36.624;-64.282;2022-12-07T07:26:23;21.10;53.00
59973;DHT22;55298;-36.624;-64.282;2022-12-07T07:28:50;21.10;53.10
59973;DHT22;55298;-36.624;-64.282;2022-12-07T07:31:18;21.00;53.40
59973;DHT22;55298;-36.624;-64.282;2022-12-07T07:33:47;20.90;53.50
59973;DHT22;55298;-36.624;-64.282;2022-12-07T07:36:16;20.90;53.60
59973;DHT22;55298;-36.624;-64.282;2022-12-07T07:38:43;20.90;53.70
59973;DHT22;55298;-36.624;-64.282;2022-12-07T07:41:12;20.90;54.00
59973;DHT22;55298;-36.624;-64.282;2022-12-07T07:43:39;20.90;54.10
59973;DHT22;55298;-36.624;-64.282;2022-12-07T07:46:07;20.80;54.20
59973;DHT22;55298;-36.624;-64.282;2022-12-07T07:48:37;20.80;54.10
59973;DHT22;55298;-36.624;-64.282;2022-12-07T07:51:08;20.70;54.10
59973;DHT22;55298;-36.624;-64.282;2022-12-07T07:53:35;20.80;54.30
59973;DHT22;55298;-36.624;-64.282;2022-12-07T07:56:04;20.80;54.20
59973;DHT22;55298;-36.624;-64.282;2022-12-07T07:58:33;20.70;54.60
59973;DHT22;55298;-36.624;-64.282;2022-12-07T08:01:05;20.70;54.80
59973;DHT22;55298;-36.624;-64.282;2022-12-07T08:03:34;20.60;55.10
59973;DHT22;55298;-36.624;-64.282;2022-12-07T08:06:03;20.60;55.00
59973;DHT22;55298;-36.624;-64.282;2022-12-07T08:08:31;20.60;54.90
59973;DHT22;55298;-36.624;-64.282;2022-12-07T08:10:58;20.60;54.90
59973;DHT22;55298;-36.624;-64.282;2022-12-07T08:13:27;20.60;55.00
59973;DHT22;55298;-36.624;-64.282;2022-12-07T08:15:55;20.40;55.10
59973;DHT22;55298;-36.624;-64.282;2022-12-07T08:18:23;20.50;55.40
59973;DHT22;55298;-36.624;-64.282;2022-12-07T08:20:50;20.40;55.60
59973;DHT22;55298;-36.624;-64.282;2022-12-07T08:23:18;20.50;55.30
59973;DHT22;55298;-36.624;-64.282;2022-12-07T08:25:45;20.50;55.50
59973;DHT22;55298;-36.624;-64.282;2022-12-07T08:28:13;20.50;55.80
59973;DHT22;55298;-36.624;-64.282;2022-12-07T08:30:40;20.50;55.70
59973;DHT22;55298;-36.624;-64.282;2022-12-07T08:33:10;20.50;55.50
59973;DHT22;55298;-36.624;-64.282;2022-12-07T08:35:37;20.60;55.80
59973;DHT22;55298;-36.624;-64.282;2022-12-07T08:38:06;20.60;55.50
59973;DHT22;55298;-36.624;-64.282;2022-12-07T08:40:34;20.60;55.70
59973;DHT22;55298;-36.624;-64.282;2022-12-07T08:43:04;20.50;55.80
59973;DHT22;55298;-36.624;-64.282;2022-12-07T08:45:31;20.50;55.90
59973;DHT22;55298;-36.624;-64.282;2022-12-07T08:48:11;20.50;56.00
59973;DHT22;55298;-36.624;-64.282;2022-12-07T08:50:40;20.40;56.20
59973;DHT22;55298;-36.624;-64.282;2022-12-07T08:53:08;20.50;56.20
59973;DHT22;55298;-36.624;-64.282;2022-12-07T08:55:37;20.40;56.60
59973;DHT22;55298;-36.624;-64.282;2022-12-07T08:58:04;20.40;56.60
59973;DHT22;55298;-36.624;-64.282;2022-12-07T09:00:32;20.40;56.60
59973;DHT22;55298;-36.624;-64.282;2022-12-07T09:03:00;20.40;56.60
59973;DHT22;55298;-36.624;-64.282;2022-12-07T09:05:27;20.40;56.50
59973;DHT22;55298;-36.624;-64.282;2022-12-07T09:07:59;20.50;56.60
59973;DHT22;55298;-36.624;-64.282;2022-12-07T09:10:29;20.50;56.60
59973;DHT22;55298;-36.624;-64.282;2022-12-07T09:12:58;20.60;56.70
59973;DHT22;55298;-36.624;-64.282;2022-12-07T09:15:29;20.60;56.40
59973;DHT22;55298;-36.624;-64.282;2022-12-07T09:17:58;20.60;56.70
59973;DHT22;55298;-36.624;-64.282;2022-12-07T09:20:25;20.80;56.60
59973;DHT22;55298;-36.624;-64.282;2022-12-07T09:22:53;20.60;56.90
59973;DHT22;55298;-36.624;-64.282;2022-12-07T09:25:20;20.70;56.60
59973;DHT22;55298;-36.624;-64.282;2022-12-07T09:27:56;20.70;56.50
59973;DHT22;55298;-36.624;-64.282;2022-12-07T09:30:24;20.70;56.70
59973;DHT22;55298;-36.624;-64.282;2022-12-07T09:32:55;20.70;56.80
59973;DHT22;55298;-36.624;-64.282;2022-12-07T09:35:24;20.70;57.10
59973;DHT22;55298;-36.624;-64.282;2022-12-07T09:37:51;20.70;57.10
59973;DHT22;55298;-36.624;-64.282;2022-12-07T09:40:21;20.70;56.70
59973;DHT22;55298;-36.624;-64.282;2022-12-07T09:42:52;20.80;56.80
59973;DHT22;55298;-36.624;-64.282;2022-12-07T09:45:26;20.90;56.70
59973;DHT22;55298;-36.624;-64.282;2022-12-07T09:47:54;20.90;56.70
59973;DHT22;55298;-36.624;-64.282;2022-12-07T09:50:26;21.00;56.40
59973;DHT22;55298;-36.624;-64.282;2022-12-07T09:53:06;21.10;56.50
59973;DHT22;55298;-36.624;-64.282;2022-12-07T09:55:34;21.10;56.50
59973;DHT22;55298;-36.624;-64.282;2022-12-07T09:58:04;21.10;56.80
59973;DHT22;55298;-36.624;-64.282;2022-12-07T10:00:31;21.00;56.70
59973;DHT22;55298;-36.624;-64.282;2022-12-07T10:03:01;21.20;57.00
59973;DHT22;55298;-36.624;-64.282;2022-12-07T10:05:41;21.30;57.20
59973;DHT22;55298;-36.624;-64.282;2022-12-07T10:08:13;21.80;56.20
59973;DHT22;55298;-36.624;-64.282;2022-12-07T10:10:44;22.20;55.00
59973;DHT22;55298;-36.624;-64.282;2022-12-07T10:13:14;22.90;54.10
59973;DHT22;55298;-36.624;-64.282;2022-12-07T10:15:50;23.10;52.90
59973;DHT22;55298;-36.624;-64.282;2022-12-07T10:18:41;23.00;53.00
59973;DHT22;55298;-36.624;-64.282;2022-12-07T10:21:24;22.70;53.90
59973;DHT22;55298;-36.624;-64.282;2022-12-07T10:29:52;22.60;55.30
59973;DHT22;55298;-36.624;-64.282;2022-12-07T10:32:35;22.60;55.80
59973;DHT22;55298;-36.624;-64.282;2022-12-07T10:35:30;22.60;56.20
59973;DHT22;55298;-36.624;-64.282;2022-12-07T10:38:16;22.70;56.70
59973;DHT22;55298;-36.624;-64.282;2022-12-07T10:40:46;22.90;56.80
59973;DHT22;55298;-36.624;-64.282;2022-12-07T10:43:19;23.00;56.10
59973;DHT22;55298;-36.624;-64.282;2022-12-07T10:46:17;23.40;56.00
59973;DHT22;55298;-36.624;-64.282;2022-12-07T10:48:52;23.60;55.50
59973;DHT22;55298;-36.624;-64.282;2022-12-07T10:54:40;24.00;54.90
59973;DHT22;55298;-36.624;-64.282;2022-12-07T11:00:23;24.50;55.20
59973;DHT22;55298;-36.624;-64.282;2022-12-07T11:06:14;25.00;53.80
59973;DHT22;55298;-36.624;-64.282;2022-12-07T11:09:04;25.00;54.40
59973;DHT22;55298;-36.624;-64.282;2022-12-07T11:11:53;24.90;55.20
59973;DHT22;55298;-36.624;-64.282;2022-12-07T11:14:37;24.80;55.60
59973;DHT22;55298;-36.624;-64.282;2022-12-07T11:20:45;24.90;56.40
59973;DHT22;55298;-36.624;-64.282;2022-12-07T11:26:51;25.10;56.50
59973;DHT22;55298;-36.624;-64.282;2022-12-07T11:29:08;25.30;56.30
59973;DHT22;55298;-36.624;-64.282;2022-12-07T11:37:38;26.20;55.30
59973;DHT22;55298;-36.624;-64.282;2022-12-07T11:40:29;26.20;54.50
59973;DHT22;55298;-36.624;-64.282;2022-12-07T11:43:17;26.00;54.80
59973;DHT22;55298;-36.624;-64.282;2022-12-07T11:51:13;26.00;54.90
59973;DHT22;55298;-36.624;-64.282;2022-12-07T11:53:46;26.20;54.60
59973;DHT22;55298;-36.624;-64.282;2022-12-07T11:56:19;26.30;54.90
59973;DHT22;55298;-36.624;-64.282;2022-12-07T12:01:58;26.40;54.90
59973;DHT22;55298;-36.624;-64.282;2022-12-07T12:07:23;26.60;54.80
59973;DHT22;55298;-36.624;-64.282;2022-12-07T12:10:00;26.70;54.30
59973;DHT22;55298;-36.624;-64.282;2022-12-07T12:12:53;26.80;54.50
59973;DHT22;55298;-36.624;-64.282;2022-12-07T12:18:38;26.90;54.00
59973;DHT22;55298;-36.624;-64.282;2022-12-07T12:21:15;27.00;53.80
59973;DHT22;55298;-36.624;-64.282;2022-12-07T12:23:48;27.10;53.50
59973;DHT22;55298;-36.624;-64.282;2022-12-07T12:26:23;26.90;53.40
59973;DHT22;55298;-36.624;-64.282;2022-12-07T12:29:41;26.70;53.50
59973;DHT22;55298;-36.624;-64.282;2022-12-07T12:32:14;26.70;53.70
59973;DHT22;55298;-36.624;-64.282;2022-12-07T12:37:43;26.40;54.20
59973;DHT22;55298;-36.624;-64.282;2022-12-07T12:46:36;26.10;54.90
59973;DHT22;55298;-36.624;-64.282;2022-12-07T12:57:42;26.60;53.90
59973;DHT22;55298;-36.624;-64.282;2022-12-07T13:00:23;26.80;53.40
59973;DHT22;55298;-36.624;-64.282;2022-12-07T13:02:58;27.30;53.00
59973;DHT22;55298;-36.624;-64.282;2022-12-07T13:05:33;27.60;52.30
59973;DHT22;55298;-36.624;-64.282;2022-12-07T13:08:13;27.90;51.10
59973;DHT22;55298;-36.624;-64.282;2022-12-07T13:10:46;28.00;50.70
59973;DHT22;55298;-36.624;-64.282;2022-12-07T13:13:31;28.10;50.70
59973;DHT22;55298;-36.624;-64.282;2022-12-07T13:18:57;28.80;49.80
59973;DHT22;55298;-36.624;-64.282;2022-12-07T13:21:46;29.80;48.10
59973;DHT22;55298;-36.624;-64.282;2022-12-07T13:24:14;30.70;45.90
59973;DHT22;55298;-36.624;-64.282;2022-12-07T13:26:43;30.80;45.90
59973;DHT22;55298;-36.624;-64.282;2022-12-07T13:29:16;31.10;44.90
59973;DHT22;55298;-36.624;-64.282;2022-12-07T13:34:34;31.40;43.70
59973;DHT22;55298;-36.624;-64.282;2022-12-07T13:40:00;31.60;43.10
59973;DHT22;55298;-36.624;-64.282;2022-12-07T13:42:31;31.90;42.90
59973;DHT22;55298;-36.624;-64.282;2022-12-07T13:45:20;32.20;43.00
59973;DHT22;55298;-36.624;-64.282;2022-12-07T13:47:53;33.10;42.40
59973;DHT22;55298;-36.624;-64.282;2022-12-07T13:50:30;34.40;39.60
59973;DHT22;55298;-36.624;-64.282;2022-12-07T13:53:01;35.10;37.30
59973;DHT22;55298;-36.624;-64.282;2022-12-07T13:55:31;35.70;36.40
59973;DHT22;55298;-36.624;-64.282;2022-12-07T13:57:59;36.50;35.00
59973;DHT22;55298;-36.624;-64.282;2022-12-07T14:00:29;37.30;34.30
59973;DHT22;55298;-36.624;-64.282;2022-12-07T14:03:01;37.80;33.70
59973;DHT22;55298;-36.624;-64.282;2022-12-07T14:05:33;38.10;31.90
59973;DHT22;55298;-36.624;-64.282;2022-12-07T14:08:22;38.00;31.60
59973;DHT22;55298;-36.624;-64.282;2022-12-07T14:10:57;37.60;32.50
59973;DHT22;55298;-36.624;-64.282;2022-12-07T14:13:51;37.40;32.50
59973;DHT22;55298;-36.624;-64.282;2022-12-07T14:16:35;37.60;31.90
59973;DHT22;55298;-36.624;-64.282;2022-12-07T14:25:26;37.80;32.30
59973;DHT22;55298;-36.624;-64.282;2022-12-07T14:27:58;38.20;30.50
59973;DHT22;55298;-36.624;-64.282;2022-12-07T14:30:33;38.40;30.10
59973;DHT22;55298;-36.624;-64.282;2022-12-07T14:33:07;38.30;30.00
59973;DHT22;55298;-36.624;-64.282;2022-12-07T14:35:38;38.40;29.50
59973;DHT22;55298;-36.624;-64.282;2022-12-07T14:38:11;38.20;29.60
59973;DHT22;55298;-36.624;-64.282;2022-12-07T14:40:40;38.20;30.20
59973;DHT22;55298;-36.624;-64.282;2022-12-07T14:43:15;38.50;30.40
59973;DHT22;55298;-36.624;-64.282;2022-12-07T14:45:50;38.70;29.30
59973;DHT22;55298;-36.624;-64.282;2022-12-07T14:48:18;38.60;29.10
59973;DHT22;55298;-36.624;-64.282;2022-12-07T14:50:50;38.40;29.30
59973;DHT22;55298;-36.624;-64.282;2022-12-07T14:53:24;38.30;29.60
59973;DHT22;55298;-36.624;-64.282;2022-12-07T14:55:59;38.10;29.90
59973;DHT22;55298;-36.624;-64.282;2022-12-07T14:58:28;38.00;30.10
59973;DHT22;55298;-36.624;-64.282;2022-12-07T15:00:58;38.10;30.40
59973;DHT22;55298;-36.624;-64.282;2022-12-07T15:03:26;38.20;30.50
59973;DHT22;55298;-36.624;-64.282;2022-12-07T15:05:54;38.40;29.90
59973;DHT22;55298;-36.624;-64.282;2022-12-07T15:08:26;38.50;30.20
59973;DHT22;55298;-36.624;-64.282;2022-12-07T15:10:55;38.50;30.40
59973;DHT22;55298;-36.624;-64.282;2022-12-07T15:13:23;38.50;30.00
59973;DHT22;55298;-36.624;-64.282;2022-12-07T15:16:01;38.20;30.00
59973;DHT22;55298;-36.624;-64.282;2022-12-07T15:18:29;38.10;31.00
59973;DHT22;55298;-36.624;-64.282;2022-12-07T15:20:58;38.10;31.10
59973;DHT22;55298;-36.624;-64.282;2022-12-07T15:23:26;38.20;31.00
59973;DHT22;55298;-36.624;-64.282;2022-12-07T15:25:56;38.50;30.20
59973;DHT22;55298;-36.624;-64.282;2022-12-07T15:28:23;38.50;30.00
59973;DHT22;55298;-36.624;-64.282;2022-12-07T15:30:52;38.40;29.80
59973;DHT22;55298;-36.624;-64.282;2022-12-07T15:33:21;38.20;29.70
59973;DHT22;55298;-36.624;-64.282;2022-12-07T15:35:49;38.20;29.50
59973;DHT22;55298;-36.624;-64.282;2022-12-07T15:38:17;37.90;29.00
59973;DHT22;55298;-36.624;-64.282;2022-12-07T15:40:58;37.70;29.40
59973;DHT22;55298;-36.624;-64.282;2022-12-07T15:43:29;37.40;29.60
59973;DHT22;55298;-36.624;-64.282;2022-12-07T15:46:08;37.60;29.70
59973;DHT22;55298;-36.624;-64.282;2022-12-07T15:48:38;37.60;29.40
59973;DHT22;55298;-36.624;-64.282;2022-12-07T15:51:09;37.40;29.20
59973;DHT22;55298;-36.624;-64.282;2022-12-07T15:53:45;37.40;29.50
59973;DHT22;55298;-36.624;-64.282;2022-12-07T15:56:13;37.20;29.80
59973;DHT22;55298;-36.624;-64.282;2022-12-07T15:58:40;37.30;30.50
59973;DHT22;55298;-36.624;-64.282;2022-12-07T16:01:16;37.50;30.00
59973;DHT22;55298;-36.624;-64.282;2022-12-07T16:03:46;37.70;29.40
59973;DHT22;55298;-36.624;-64.282;2022-12-07T16:06:18;38.10;29.50
59973;DHT22;55298;-36.624;-64.282;2022-12-07T16:08:47;38.40;29.70
59973;DHT22;55298;-36.624;-64.282;2022-12-07T16:11:15;38.50;29.60
59973;DHT22;55298;-36.624;-64.282;2022-12-07T16:13:43;38.90;29.30
59973;DHT22;55298;-36.624;-64.282;2022-12-07T16:16:14;39.10;28.10
59973;DHT22;55298;-36.624;-64.282;2022-12-07T16:18:44;39.30;28.00
59973;DHT22;55298;-36.624;-64.282;2022-12-07T16:21:12;39.40;28.10
59973;DHT22;55298;-36.624;-64.282;2022-12-07T16:23:41;39.00;27.50
59973;DHT22;55298;-36.624;-64.282;2022-12-07T16:26:14;38.40;27.90
59973;DHT22;55298;-36.624;-64.282;2022-12-07T16:28:43;37.80;28.70
59973;DHT22;55298;-36.624;-64.282;2022-12-07T16:31:16;37.40;29.50
59973;DHT22;55298;-36.624;-64.282;2022-12-07T16:33:49;37.00;29.30
59973;DHT22;55298;-36.624;-64.282;2022-12-07T16:36:18;36.90;29.70
59973;DHT22;55298;-36.624;-64.282;2022-12-07T16:38:48;36.80;30.10
59973;DHT22;55298;-36.624;-64.282;2022-12-07T16:41:19;36.80;29.80
59973;DHT22;55298;-36.624;-64.282;2022-12-07T16:43:48;36.90;29.90
59973;DHT22;55298;-36.624;-64.282;2022-12-07T16:46:16;36.70;29.80
59973;DHT22;55298;-36.624;-64.282;2022-12-07T16:48:44;36.50;30.10
59973;DHT22;55298;-36.624;-64.282;2022-12-07T16:51:13;36.50;30.00
59973;DHT22;55298;-36.624;-64.282;2022-12-07T16:53:42;36.40;30.10
59973;DHT22;55298;-36.624;-64.282;2022-12-07T16:56:13;36.40;31.20